Time;durP1;ratioP1;P1;durP2;ratioP2;P2;SDS_P1;SDS_P2;PMS_P1;PMS_P2;Temp;Humidity;BMP_temperature;BMP_pressure;BME280_temperature;BME280_humidity;BME280_pressure;Samples;Min_cycle;Max_cycle;Signal;HPM_P1;HPM_P2
2023/09/24 06:52:32;;;;;;;1.40;1.30;;;;;;;;;;5383983;23;20483;-77
2023/09/24 06:54:59;;;;;;;1.52;1.30;;;;;;;;;;4939619;29;20043;-76
2023/09/24 06:57:24;;;;;;;1.33;1.23;;;;;;;;;;4957379;29;20166;-76
2023/09/24 06:59:50;;;;;;;1.30;1.20;;;;;;;;;;4939751;29;20055;-76
2023/09/24 07:02:16;;;;;;;1.50;1.40;;;;;;;;;;4957747;28;20031;-77
2023/09/24 07:04:43;;;;;;;1.40;1.30;;;;;;;;;;4961831;29;20033;-77
2023/09/24 07:07:09;;;;;;;1.50;1.40;;;;;;;;;;4960129;29;20030;-76
2023/09/24 07:09:34;;;;;;;1.40;1.30;;;;;;;;;;4961520;28;20027;-76
2023/09/24 07:12:00;;;;;;;1.30;1.20;;;;;;;;;;4965029;28;20546;-76
2023/09/24 07:14:26;;;;;;;1.20;1.10;;;;;;;;;;4965333;28;20031;-77
2023/09/24 07:16:52;;;;;;;1.13;1.13;;;;;;;;;;4966567;28;20031;-76
2023/09/24 07:19:18;;;;;;;1.45;1.35;;;;;;;;;;4946610;29;20047;-76
2023/09/24 07:21:45;;;;;;;1.45;1.20;;;;;;;;;;4956230;28;20031;-76
2023/09/24 07:24:11;;;;;;;1.10;1.10;;;;;;;;;;4956445;28;20131;-77
2023/09/24 07:26:37;;;;;;;1.33;1.02;;;;;;;;;;4973669;28;20031;-76
2023/09/24 07:29:03;;;;;;;2.20;1.23;;;;;;;;;;4983619;28;20077;-76
2023/09/24 07:31:29;;;;;;;1.40;1.30;;;;;;;;;;4986486;28;20054;-76
2023/09/24 07:33:57;;;;;;;1.73;1.20;;;;;;;;;;4975542;28;20027;-77
2023/09/24 07:36:23;;;;;;;1.27;1.17;;;;;;;;;;4991684;28;20030;-76
2023/09/24 07:38:52;;;;;;;1.30;1.20;;;;;;;;;;4985286;28;20054;-76
2023/09/24 07:41:21;;;;;;;1.00;1.00;;;;;;;;;;4985169;28;20023;-77
2023/09/24 07:43:46;;;;;;;1.30;1.20;;;;;;;;;;4979614;28;20261;-77
2023/09/24 07:46:15;;;;;;;1.10;1.10;;;;;;;;;;4980412;28;20034;-76
2023/09/24 07:48:44;;;;;;;1.33;1.13;;;;;;;;;;4979577;28;20030;-76
2023/09/24 07:51:11;;;;;;;1.30;1.20;;;;;;;;;;4982200;28;20023;-76
2023/09/24 07:53:37;;;;;;;1.10;1.00;;;;;;;;;;4981897;28;20027;-77
2023/09/24 07:56:08;;;;;;;1.25;1.15;;;;;;;;;;4982781;28;20061;-76
2023/09/24 07:58:35;;;;;;;1.10;1.10;;;;;;;;;;4981240;28;20570;-77
2023/09/24 08:01:03;;;;;;;1.20;1.10;;;;;;;;;;4976235;28;20109;-76
2023/09/24 08:03:29;;;;;;;1.00;1.00;;;;;;;;;;4975048;28;20427;-76
2023/09/24 08:05:55;;;;;;;1.17;1.05;;;;;;;;;;4974729;28;20066;-76
2023/09/24 08:08:20;;;;;;;0.80;0.80;;;;;;;;;;4974886;28;20510;-76
2023/09/24 08:10:46;;;;;;;1.27;1.20;;;;;;;;;;4974929;28;20407;-76
2023/09/24 08:13:11;;;;;;;1.95;1.20;;;;;;;;;;4974657;28;20574;-76
2023/09/24 08:15:37;;;;;;;1.23;1.10;;;;;;;;;;4974575;28;20042;-76
2023/09/24 08:18:08;;;;;;;1.10;1.10;;;;;;;;;;4974477;28;20031;-76
2023/09/24 08:20:37;;;;;;;1.08;1.02;;;;;;;;;;4974486;28;20130;-76
2023/09/24 08:23:03;;;;;;;1.00;1.00;;;;;;;;;;4974322;28;20113;-76
2023/09/24 08:25:30;;;;;;;1.05;1.05;;;;;;;;;;4975357;28;20046;-76
2023/09/24 08:27:55;;;;;;;1.00;1.00;;;;;;;;;;4976724;28;20029;-76
2023/09/24 08:30:21;;;;;;;0.90;0.90;;;;;;;;;;4975472;28;20015;-76
2023/09/24 08:32:47;;;;;;;1.27;1.00;;;;;;;;;;4975430;28;20084;-76
2023/09/24 08:35:12;;;;;;;1.02;1.02;;;;;;;;;;4975672;28;20031;-75
2023/09/24 08:37:38;;;;;;;1.00;1.00;;;;;;;;;;4975217;28;20027;-75
2023/09/24 08:40:07;;;;;;;1.00;1.00;;;;;;;;;;4974539;28;20023;-75
2023/09/24 08:42:33;;;;;;;1.00;1.00;;;;;;;;;;4974060;28;20035;-75
2023/09/24 08:45:13;;;;;;;2.70;1.00;;;;;;;;;;4979683;28;20030;-77
2023/09/24 08:47:39;;;;;;;1.00;1.00;;;;;;;;;;4983978;28;20434;-75
2023/09/24 08:50:09;;;;;;;0.82;0.82;;;;;;;;;;4981252;28;20069;-77
2023/09/24 08:52:37;;;;;;;1.20;1.10;;;;;;;;;;4983416;28;20046;-78
2023/09/24 08:55:07;;;;;;;1.00;1.00;;;;;;;;;;4983926;28;20391;-74
2023/09/24 08:57:46;;;;;;;2.53;1.10;;;;;;;;;;4986395;28;20030;-76
2023/09/24 09:00:14;;;;;;;1.30;1.20;;;;;;;;;;4987388;28;20031;-77
2023/09/24 09:02:41;;;;;;;0.90;0.90;;;;;;;;;;4975478;28;20030;-77
2023/09/24 09:05:11;;;;;;;1.17;0.88;;;;;;;;;;4968190;28;20035;-78
2023/09/24 09:07:39;;;;;;;0.80;0.80;;;;;;;;;;4959623;28;20058;-78
2023/09/24 09:10:05;;;;;;;0.80;0.80;;;;;;;;;;4962412;28;20023;-79
2023/09/24 09:12:31;;;;;;;1.13;0.98;;;;;;;;;;4967399;28;20079;-77
2023/09/24 09:14:57;;;;;;;0.90;0.90;;;;;;;;;;4966519;28;20530;-77
2023/09/24 09:17:24;;;;;;;0.77;0.77;;;;;;;;;;4964149;28;20498;-76
2023/09/24 09:19:56;;;;;;;0.98;0.98;;;;;;;;;;4951296;28;20031;-75
2023/09/24 09:22:24;;;;;;;1.08;1.00;;;;;;;;;;4972016;28;20058;-76
2023/09/24 09:25:04;;;;;;;0.90;0.90;;;;;;;;;;4963227;28;20015;-74
2023/09/24 09:27:39;;;;;;;0.90;0.90;;;;;;;;;;4963950;28;20046;-77
2023/09/24 09:30:13;;;;;;;0.82;0.80;;;;;;;;;;4964044;28;20062;-78
2023/09/24 09:32:38;;;;;;;0.88;0.88;;;;;;;;;;4964118;28;20030;-77
2023/09/24 09:35:05;;;;;;;0.90;0.90;;;;;;;;;;4965169;28;20387;-77
2023/09/24 09:37:31;;;;;;;0.88;0.88;;;;;;;;;;4947828;28;20054;-77
2023/09/24 09:39:57;;;;;;;0.80;0.80;;;;;;;;;;4948403;28;20023;-78
2023/09/24 09:42:25;;;;;;;0.73;0.73;;;;;;;;;;4979405;28;20114;-77
2023/09/24 09:44:52;;;;;;;4.28;0.95;;;;;;;;;;4962512;28;20443;-77
2023/09/24 09:47:22;;;;;;;0.70;0.70;;;;;;;;;;4960557;28;20030;-78
2023/09/24 09:50:06;;;;;;;;;;;;;;;;;;4957350;28;20034;-76
2023/09/24 09:52:43;;;;;;;0.80;0.70;;;;;;;;;;4954360;28;19918;-76
2023/09/24 09:55:09;;;;;;;0.70;0.70;;;;;;;;;;4953291;29;20432;-77
2023/09/24 09:57:35;;;;;;;0.80;0.80;;;;;;;;;;4958231;28;20026;-78
2023/09/24 10:00:05;;;;;;;1.23;0.82;;;;;;;;;;4959282;29;20035;-77
2023/09/24 10:02:32;;;;;;;0.80;0.80;;;;;;;;;;4961215;29;20082;-78
2023/09/24 10:04:59;;;;;;;0.77;0.77;;;;;;;;;;4953354;29;20031;-78
2023/09/24 10:07:25;;;;;;;0.90;0.90;;;;;;;;;;4954120;29;20024;-76
2023/09/24 10:09:50;;;;;;;0.70;0.70;;;;;;;;;;4953618;28;20377;-76
2023/09/24 10:12:45;;;;;;;0.80;0.80;;;;;;;;;;4960604;28;20034;-76
2023/09/24 10:15:27;;;;;;;0.80;0.80;;;;;;;;;;4946019;28;20036;-76
2023/09/24 10:18:08;;;;;;;0.90;0.82;;;;;;;;;;4965671;28;20094;-76
2023/09/24 10:20:49;;;;;;;0.80;0.80;;;;;;;;;;4964044;29;20028;-77
2023/09/24 10:23:29;;;;;;;1.95;0.80;;;;;;;;;;4958693;29;20083;-75
2023/09/24 10:25:59;;;;;;;0.70;0.70;;;;;;;;;;4964453;28;20027;-77
2023/09/24 10:28:48;;;;;;;0.70;0.70;;;;;;;;;;4960992;28;20534;-76
2023/09/24 10:31:16;;;;;;;0.75;0.75;;;;;;;;;;4962343;28;20043;-78
2023/09/24 10:34:02;;;;;;;0.70;0.70;;;;;;;;;;4961228;28;20015;-76
2023/09/24 10:36:34;;;;;;;0.70;0.70;;;;;;;;;;4940582;29;20388;-76
2023/09/24 10:39:07;;;;;;;0.90;0.90;;;;;;;;;;4960585;29;20027;-75
2023/09/24 10:41:35;;;;;;;0.70;0.70;;;;;;;;;;4962936;29;20027;-76
2023/09/24 10:44:22;;;;;;;0.80;0.80;;;;;;;;;;4962543;29;20031;-76
2023/09/24 10:46:47;;;;;;;0.70;0.70;;;;;;;;;;4963649;28;20073;-77
2023/09/24 10:49:21;;;;;;;0.93;0.70;;;;;;;;;;4961361;28;20086;-76
2023/09/24 10:51:47;;;;;;;0.77;0.77;;;;;;;;;;4958127;28;20073;-76
2023/09/24 10:54:16;;;;;;;0.90;0.90;;;;;;;;;;4966229;28;20062;-75
2023/09/24 10:56:49;;;;;;;1.08;0.70;;;;;;;;;;4963106;28;20488;-77
2023/09/24 10:59:32;;;;;;;0.80;0.80;;;;;;;;;;4962494;28;20412;-76
2023/09/24 11:01:57;;;;;;;0.70;0.70;;;;;;;;;;4968454;29;20027;-75
2023/09/24 11:04:26;;;;;;;0.85;0.85;;;;;;;;;;4967324;28;20042;-75
2023/09/24 11:06:52;;;;;;;0.60;0.60;;;;;;;;;;4969133;28;20035;-74
2023/09/24 11:09:20;;;;;;;1.70;0.63;;;;;;;;;;4940069;29;20040;-75
2023/09/24 11:11:45;;;;;;;1.02;0.70;;;;;;;;;;4952555;28;20059;-73
2023/09/24 11:14:24;;;;;;;1.00;0.75;;;;;;;;;;4955821;28;20090;-75
2023/09/24 11:16:52;;;;;;;0.65;0.65;;;;;;;;;;4954888;29;20551;-76
2023/09/24 11:19:44;;;;;;;1.50;0.55;;;;;;;;;;4955034;28;20115;-76
2023/09/24 11:22:21;;;;;;;0.63;0.63;;;;;;;;;;4954658;28;20023;-77
2023/09/24 11:24:50;;;;;;;0.63;0.63;;;;;;;;;;4954377;29;20027;-76
2023/09/24 11:27:18;;;;;;;0.70;0.70;;;;;;;;;;4939838;29;20038;-76
2023/09/24 11:29:57;;;;;;;1.85;0.50;;;;;;;;;;4957094;29;20074;-77
2023/09/24 11:32:25;;;;;;;0.70;0.70;;;;;;;;;;4956358;28;20101;-76
2023/09/24 11:34:50;;;;;;;0.60;0.60;;;;;;;;;;4957420;29;20551;-76
2023/09/24 11:37:16;;;;;;;1.38;0.60;;;;;;;;;;4959731;28;20081;-75
2023/09/24 11:39:44;;;;;;;0.82;0.80;;;;;;;;;;4956168;29;20736;-77
2023/09/24 11:42:18;;;;;;;1.23;0.63;;;;;;;;;;4961012;28;20423;-77
2023/09/24 11:44:47;;;;;;;1.75;0.70;;;;;;;;;;4957658;28;20035;-78
2023/09/24 11:47:12;;;;;;;0.70;0.70;;;;;;;;;;4955216;29;20027;-76
2023/09/24 11:49:38;;;;;;;1.88;1.00;;;;;;;;;;4960326;29;20503;-76
2023/09/24 11:52:09;;;;;;;0.60;0.60;;;;;;;;;;4964995;28;20518;-77
2023/09/24 11:54:35;;;;;;;1.23;0.80;;;;;;;;;;4965249;28;20518;-75
2023/09/24 11:57:00;;;;;;;0.80;0.70;;;;;;;;;;4963351;28;20067;-76
2023/09/24 11:59:30;;;;;;;0.60;0.60;;;;;;;;;;4964271;28;20027;-77
2023/09/24 12:01:56;;;;;;;0.70;0.70;;;;;;;;;;4964170;28;20058;-77
2023/09/24 12:04:21;;;;;;;0.70;0.60;;;;;;;;;;4964846;28;20030;-77
2023/09/24 12:06:47;;;;;;;0.70;0.70;;;;;;;;;;4973928;28;20042;-75
2023/09/24 12:09:13;;;;;;;0.93;0.60;;;;;;;;;;4978075;28;20843;-76
2023/09/24 12:11:38;;;;;;;0.70;0.70;;;;;;;;;;4980552;28;20073;-77
2023/09/24 12:14:04;;;;;;;0.63;0.60;;;;;;;;;;4981285;28;20077;-76
2023/09/24 12:16:29;;;;;;;2.42;0.80;;;;;;;;;;4980350;28;20582;-76
2023/09/24 12:18:55;;;;;;;0.50;0.50;;;;;;;;;;4977341;28;20081;-76
2023/09/24 12:21:21;;;;;;;0.68;0.68;;;;;;;;;;4977035;28;20499;-76
2023/09/24 12:23:46;;;;;;;1.98;0.70;;;;;;;;;;4976669;28;20031;-76
2023/09/24 12:26:12;;;;;;;0.75;0.70;;;;;;;;;;4967816;28;20062;-75
2023/09/24 12:28:37;;;;;;;2.13;0.52;;;;;;;;;;4946201;28;20490;-75
2023/09/24 12:31:03;;;;;;;4.85;0.80;;;;;;;;;;4961414;28;20643;-75
2023/09/24 12:33:28;;;;;;;2.03;0.75;;;;;;;;;;4963339;28;20058;-75
2023/09/24 12:35:54;;;;;;;0.80;0.70;;;;;;;;;;4953508;29;20392;-75
2023/09/24 12:38:20;;;;;;;2.58;0.70;;;;;;;;;;4953170;28;20119;-75
2023/09/24 12:40:47;;;;;;;0.70;0.70;;;;;;;;;;4953103;28;20181;-75
2023/09/24 12:43:12;;;;;;;0.70;0.70;;;;;;;;;;4953126;28;20027;-75
2023/09/24 12:45:38;;;;;;;0.80;0.80;;;;;;;;;;4935957;29;20069;-75
2023/09/24 12:48:04;;;;;;;0.80;0.70;;;;;;;;;;4953179;28;20035;-76
2023/09/24 12:50:30;;;;;;;0.77;0.77;;;;;;;;;;4935725;29;20035;-74
2023/09/24 12:52:55;;;;;;;0.60;0.60;;;;;;;;;;4952898;29;20059;-75
2023/09/24 12:55:21;;;;;;;0.80;0.80;;;;;;;;;;4953262;28;20038;-76
2023/09/24 12:57:46;;;;;;;0.73;0.60;;;;;;;;;;4953139;29;20019;-76
2023/09/24 13:00:14;;;;;;;0.80;0.80;;;;;;;;;;4952992;29;20391;-75
2023/09/24 13:02:48;;;;;;;0.70;0.70;;;;;;;;;;4953201;29;20043;-76
2023/09/24 13:05:16;;;;;;;0.63;0.60;;;;;;;;;;4952831;29;20133;-75
2023/09/24 13:07:43;;;;;;;0.70;0.70;;;;;;;;;;4952898;29;20492;-75
2023/09/24 13:10:10;;;;;;;3.03;0.80;;;;;;;;;;4935534;29;20392;-75
2023/09/24 13:12:35;;;;;;;0.60;0.60;;;;;;;;;;4958181;28;20117;-75
2023/09/24 13:15:02;;;;;;;0.70;0.70;;;;;;;;;;4964098;28;20530;-77
2023/09/24 13:17:28;;;;;;;0.70;0.70;;;;;;;;;;4962242;28;20023;-76
2023/09/24 13:19:54;;;;;;;1.60;0.77;;;;;;;;;;4969429;28;20146;-74
2023/09/24 13:22:20;;;;;;;0.70;0.70;;;;;;;;;;4973732;28;20626;-73
2023/09/24 13:24:46;;;;;;;1.20;0.65;;;;;;;;;;4972789;28;20041;-73
2023/09/24 13:27:12;;;;;;;3.13;0.73;;;;;;;;;;4972879;28;20037;-73
2023/09/24 13:29:37;;;;;;;1.30;0.80;;;;;;;;;;4971810;28;20102;-72
2023/09/24 13:32:03;;;;;;;1.77;0.82;;;;;;;;;;4971779;28;20038;-73
2023/09/24 13:34:31;;;;;;;2.47;0.85;;;;;;;;;;4954706;28;20030;-72
2023/09/24 13:36:57;;;;;;;0.60;0.60;;;;;;;;;;4971823;28;20027;-72
2023/09/24 13:39:23;;;;;;;1.67;0.70;;;;;;;;;;4971727;28;20031;-73
2023/09/24 13:41:49;;;;;;;0.85;0.70;;;;;;;;;;4971743;28;20077;-73
2023/09/24 13:44:14;;;;;;;0.65;0.65;;;;;;;;;;4971407;28;20058;-73
2023/09/24 13:46:40;;;;;;;1.10;0.75;;;;;;;;;;4954306;28;20110;-72
2023/09/24 13:49:05;;;;;;;1.30;0.80;;;;;;;;;;4971853;28;20360;-72
2023/09/24 13:51:35;;;;;;;0.80;0.70;;;;;;;;;;4973175;28;20114;-72
2023/09/24 13:54:02;;;;;;;1.95;0.80;;;;;;;;;;4974112;28;20584;-74
2023/09/24 13:56:27;;;;;;;2.03;0.60;;;;;;;;;;4966812;28;20026;-75
2023/09/24 13:58:53;;;;;;;0.95;0.90;;;;;;;;;;4964460;28;20038;-74
2023/09/24 14:01:18;;;;;;;3.50;1.13;;;;;;;;;;4964887;28;20081;-74
2023/09/24 14:03:44;;;;;;;0.60;0.60;;;;;;;;;;4967300;28;20024;-75
2023/09/24 14:06:09;;;;;;;0.70;0.70;;;;;;;;;;4964332;28;20384;-74
2023/09/24 14:14:12;;;;;;;2.95;0.80;;;;;;;;;;4964548;28;20098;-74
2023/09/24 14:16:40;;;;;;;3.92;0.80;;;;;;;;;;4971562;28;20022;-73
2023/09/24 14:19:07;;;;;;;2.47;0.70;;;;;;;;;;4965906;28;20031;-73
2023/09/24 14:21:34;;;;;;;2.95;0.60;;;;;;;;;;4964525;28;20027;-72
2023/09/24 14:24:00;;;;;;;3.33;1.10;;;;;;;;;;4964736;28;20386;-72
2023/09/24 14:26:28;;;;;;;8.52;1.33;;;;;;;;;;4965779;28;20030;-73
2023/09/24 14:28:58;;;;;;;7.88;1.27;;;;;;;;;;4964156;28;20056;-72
2023/09/24 14:31:24;;;;;;;6.97;1.00;;;;;;;;;;4964175;28;20106;-74
2023/09/24 14:33:51;;;;;;;1.27;1.00;;;;;;;;;;4971895;28;20035;-73
2023/09/24 14:36:16;;;;;;;3.15;1.00;;;;;;;;;;4929268;28;20035;-72
2023/09/24 14:38:42;;;;;;;4.50;0.98;;;;;;;;;;4971649;28;20034;-73
2023/09/24 14:41:09;;;;;;;0.70;0.63;;;;;;;;;;4957300;28;20601;-73
2023/09/24 14:43:35;;;;;;;0.75;0.73;;;;;;;;;;4974695;28;20057;-73
2023/09/24 14:46:02;;;;;;;2.90;0.80;;;;;;;;;;4957109;28;20035;-73
2023/09/24 14:48:28;;;;;;;0.90;0.90;;;;;;;;;;4974968;28;20046;-72
2023/09/24 14:50:55;;;;;;;0.60;0.60;;;;;;;;;;4974497;28;20054;-73
2023/09/24 14:53:32;;;;;;;1.00;0.80;;;;;;;;;;4974381;28;20058;-72
2023/09/24 14:55:59;;;;;;;2.83;0.65;;;;;;;;;;4974742;28;20054;-72
2023/09/24 14:58:29;;;;;;;2.10;0.73;;;;;;;;;;4974265;28;20026;-73
2023/09/24 15:01:04;;;;;;;;;;;;;;;;;;4974946;28;20112;-72
2023/09/24 15:03:31;;;;;;;1.20;0.75;;;;;;;;;;4974285;28;19946;-72
2023/09/24 15:05:59;;;;;;;3.25;0.80;;;;;;;;;;4974142;28;20080;-72
2023/09/24 15:08:25;;;;;;;0.70;0.70;;;;;;;;;;4974220;28;20030;-72
2023/09/24 15:10:54;;;;;;;2.47;0.75;;;;;;;;;;4974309;28;20031;-73
2023/09/24 15:13:21;;;;;;;0.70;0.70;;;;;;;;;;4974061;28;20023;-72
2023/09/24 15:15:47;;;;;;;0.80;0.80;;;;;;;;;;4974181;28;20061;-73
2023/09/24 15:18:13;;;;;;;0.93;0.90;;;;;;;;;;4955217;28;20031;-73
2023/09/24 15:20:40;;;;;;;2.80;0.80;;;;;;;;;;4954945;28;20030;-74
2023/09/24 15:23:11;;;;;;;0.93;0.80;;;;;;;;;;4954627;29;20110;-72
2023/09/24 15:25:37;;;;;;;0.77;0.77;;;;;;;;;;4941730;29;20128;-76
2023/09/24 15:28:03;;;;;;;1.15;0.90;;;;;;;;;;4963748;28;20062;-76
2023/09/24 15:30:29;;;;;;;0.80;0.80;;;;;;;;;;4978142;28;20019;-76
2023/09/24 15:32:57;;;;;;;0.80;0.75;;;;;;;;;;4976899;28;20074;-75
2023/09/24 15:35:24;;;;;;;0.73;0.70;;;;;;;;;;4976377;28;20030;-77
2023/09/24 15:37:50;;;;;;;0.80;0.70;;;;;;;;;;4958665;28;20023;-74
2023/09/24 15:40:16;;;;;;;0.95;0.95;;;;;;;;;;4975349;28;20027;-75
2023/09/24 15:42:43;;;;;;;1.15;1.00;;;;;;;;;;4975294;28;20019;-73
2023/09/24 15:45:11;;;;;;;2.33;1.02;;;;;;;;;;4956925;28;20487;-73
2023/09/24 15:47:39;;;;;;;5.38;1.35;;;;;;;;;;4973765;28;20030;-75
2023/09/24 15:50:07;;;;;;;1.20;1.20;;;;;;;;;;4975113;28;20030;-73
2023/09/24 15:52:33;;;;;;;1.77;1.42;;;;;;;;;;4974823;28;20134;-73
2023/09/24 15:54:59;;;;;;;1.80;1.48;;;;;;;;;;4973639;28;20105;-73
2023/09/24 15:57:25;;;;;;;1.63;1.30;;;;;;;;;;4975174;28;20109;-74
2023/09/24 15:59:50;;;;;;;1.77;1.60;;;;;;;;;;4974769;28;20158;-73
2023/09/24 16:02:16;;;;;;;2.53;1.33;;;;;;;;;;4974800;28;20027;-75
2023/09/24 16:04:41;;;;;;;3.13;1.27;;;;;;;;;;4974751;28;20497;-74
2023/09/24 16:07:07;;;;;;;1.33;1.23;;;;;;;;;;4974681;28;20027;-73
2023/09/24 16:09:32;;;;;;;1.30;1.20;;;;;;;;;;4974650;28;20023;-74
2023/09/24 16:11:58;;;;;;;2.20;1.30;;;;;;;;;;4974648;28;20019;-73
2023/09/24 16:14:24;;;;;;;3.65;1.58;;;;;;;;;;4974037;28;20053;-72
2023/09/24 16:16:49;;;;;;;1.65;1.20;;;;;;;;;;4974809;28;20085;-73
2023/09/24 16:19:15;;;;;;;2.85;1.27;;;;;;;;;;4974478;28;20053;-73
2023/09/24 16:21:41;;;;;;;1.83;1.13;;;;;;;;;;4974400;28;20030;-74
2023/09/24 16:24:06;;;;;;;1.30;1.15;;;;;;;;;;4974545;28;20027;-75
2023/09/24 16:26:32;;;;;;;2.10;1.20;;;;;;;;;;4974278;28;20034;-75
2023/09/24 16:28:58;;;;;;;1.25;1.15;;;;;;;;;;4974144;28;20031;-73
2023/09/24 16:31:26;;;;;;;1.38;1.27;;;;;;;;;;4974022;28;20086;-73
2023/09/24 16:33:51;;;;;;;1.70;1.60;;;;;;;;;;4973932;28;20042;-73
2023/09/24 16:36:17;;;;;;;1.25;1.20;;;;;;;;;;4974155;28;20431;-73
2023/09/24 16:38:42;;;;;;;1.30;1.20;;;;;;;;;;4974064;28;20023;-73
2023/09/24 16:41:08;;;;;;;2.92;1.08;;;;;;;;;;4974049;28;20446;-75
2023/09/24 16:43:33;;;;;;;1.73;1.20;;;;;;;;;;4974058;28;20127;-72
2023/09/24 16:45:59;;;;;;;1.20;1.13;;;;;;;;;;4974455;28;20062;-72
2023/09/24 16:48:25;;;;;;;1.20;1.10;;;;;;;;;;4973991;28;20431;-72
2023/09/24 16:50:53;;;;;;;1.40;1.13;;;;;;;;;;4973834;28;20031;-73
2023/09/24 16:53:19;;;;;;;2.85;1.13;;;;;;;;;;4974034;28;20054;-72
2023/09/24 16:55:45;;;;;;;1.55;1.23;;;;;;;;;;4974052;28;20066;-72
2023/09/24 16:58:10;;;;;;;2.53;1.33;;;;;;;;;;4974847;28;20053;-76
2023/09/24 17:00:36;;;;;;;2.72;1.30;;;;;;;;;;4974961;28;20030;-75
2023/09/24 17:03:04;;;;;;;1.67;1.42;;;;;;;;;;4975038;28;20479;-76
2023/09/24 17:05:36;;;;;;;5.47;1.40;;;;;;;;;;4975855;28;20110;-77
2023/09/24 17:08:03;;;;;;;2.05;1.42;;;;;;;;;;4959221;28;20754;-76
2023/09/24 17:10:29;;;;;;;1.40;1.30;;;;;;;;;;4956209;29;20074;-72
2023/09/24 17:12:55;;;;;;;1.67;1.40;;;;;;;;;;4939788;29;20023;-72
2023/09/24 17:15:21;;;;;;;1.48;1.38;;;;;;;;;;4965600;28;20531;-72
2023/09/24 17:17:47;;;;;;;3.45;1.30;;;;;;;;;;4957460;28;20037;-72
2023/09/24 17:20:13;;;;;;;1.50;1.40;;;;;;;;;;4950915;28;20387;-73
2023/09/24 17:22:39;;;;;;;1.58;1.48;;;;;;;;;;4963268;28;20034;-73
2023/09/24 17:25:05;;;;;;;1.92;1.38;;;;;;;;;;4963560;28;20086;-73
2023/09/24 17:27:31;;;;;;;2.40;1.50;;;;;;;;;;4963195;28;20034;-74
2023/09/24 17:29:57;;;;;;;1.40;1.30;;;;;;;;;;4958303;29;20023;-72
2023/09/24 17:32:23;;;;;;;1.50;1.40;;;;;;;;;;4958097;28;20035;-73
2023/09/24 17:34:50;;;;;;;2.22;1.58;;;;;;;;;;4958559;29;20028;-75
2023/09/24 17:37:16;;;;;;;6.57;1.70;;;;;;;;;;4959752;29;20027;-72
2023/09/24 17:39:42;;;;;;;6.63;1.80;;;;;;;;;;4959726;29;20023;-77
2023/09/24 17:42:07;;;;;;;7.07;2.08;;;;;;;;;;4958960;28;20029;-73
2023/09/24 17:44:33;;;;;;;30.70;7.60;;;;;;;;;;4958479;28;20046;-74
2023/09/24 17:46:58;;;;;;;4.47;2.40;;;;;;;;;;4959235;28;20027;-73
2023/09/24 17:49:24;;;;;;;13.15;4.35;;;;;;;;;;4957801;28;20055;-74
2023/09/24 17:51:49;;;;;;;7.85;3.28;;;;;;;;;;4958010;28;20148;-73
2023/09/24 17:54:15;;;;;;;10.60;3.03;;;;;;;;;;4960375;28;20109;-77
2023/09/24 17:56:42;;;;;;;8.43;3.50;;;;;;;;;;4967579;28;20119;-73
2023/09/24 17:59:08;;;;;;;10.90;3.33;;;;;;;;;;4975030;28;20024;-76
2023/09/24 18:01:34;;;;;;;12.45;3.92;;;;;;;;;;4969976;28;20023;-74
2023/09/24 18:04:00;;;;;;;13.48;4.28;;;;;;;;;;4971828;28;20092;-73
2023/09/24 18:06:26;;;;;;;6.07;3.70;;;;;;;;;;4970818;28;20031;-73
2023/09/24 18:08:52;;;;;;;9.90;3.35;;;;;;;;;;4965921;28;20031;-73
2023/09/24 18:11:17;;;;;;;9.55;4.45;;;;;;;;;;4971592;28;20027;-73
2023/09/24 18:13:46;;;;;;;45.63;9.10;;;;;;;;;;4977806;28;20026;-77
2023/09/24 18:16:12;;;;;;;13.48;4.40;;;;;;;;;;4977100;28;20026;-73
2023/09/24 18:18:38;;;;;;;18.63;4.10;;;;;;;;;;4977002;28;20033;-75
2023/09/24 18:21:05;;;;;;;9.93;4.00;;;;;;;;;;4959772;28;20357;-72
2023/09/24 18:23:32;;;;;;;8.68;3.90;;;;;;;;;;4977443;28;20131;-74
2023/09/24 18:25:58;;;;;;;8.75;3.92;;;;;;;;;;4977150;28;20026;-77
2023/09/24 18:28:25;;;;;;;8.93;3.92;;;;;;;;;;4977824;28;20515;-72
2023/09/24 18:30:50;;;;;;;6.57;3.63;;;;;;;;;;4977533;28;20023;-73
2023/09/24 18:33:16;;;;;;;5.88;3.42;;;;;;;;;;4977021;28;20034;-74
2023/09/24 18:35:42;;;;;;;7.38;3.65;;;;;;;;;;4976873;28;20476;-74
2023/09/24 18:38:08;;;;;;;5.53;3.10;;;;;;;;;;4977678;28;20058;-73
2023/09/24 18:40:35;;;;;;;5.85;3.42;;;;;;;;;;4976608;28;20058;-73
2023/09/24 18:43:02;;;;;;;3.83;2.80;;;;;;;;;;4976874;28;20030;-75
2023/09/24 18:45:27;;;;;;;4.38;2.88;;;;;;;;;;4976279;28;20137;-74
2023/09/24 18:47:53;;;;;;;3.80;2.60;;;;;;;;;;4976255;28;20535;-73
2023/09/24 18:50:18;;;;;;;3.63;2.80;;;;;;;;;;4976278;28;20488;-74
2023/09/24 18:52:44;;;;;;;5.18;2.92;;;;;;;;;;4958268;28;20085;-74
2023/09/24 18:55:09;;;;;;;4.80;2.60;;;;;;;;;;4976319;28;20018;-73
2023/09/24 18:57:35;;;;;;;4.57;2.80;;;;;;;;;;4976653;28;20023;-73
2023/09/24 19:00:03;;;;;;;3.78;2.60;;;;;;;;;;4979513;28;20031;-74
2023/09/24 19:02:29;;;;;;;4.72;2.65;;;;;;;;;;4977144;28;20033;-73
2023/09/24 19:04:54;;;;;;;7.25;2.72;;;;;;;;;;4976260;28;20031;-73
2023/09/24 19:07:20;;;;;;;4.10;2.90;;;;;;;;;;4973604;28;20031;-73
2023/09/24 19:09:46;;;;;;;3.80;2.72;;;;;;;;;;4965661;28;20028;-75
2023/09/24 19:12:12;;;;;;;4.57;2.83;;;;;;;;;;4975252;28;20379;-76
2023/09/24 19:14:38;;;;;;;7.85;2.40;;;;;;;;;;4967596;28;20023;-75
2023/09/24 19:17:03;;;;;;;3.65;2.42;;;;;;;;;;4965210;28;20094;-73
2023/09/24 19:19:29;;;;;;;4.75;2.53;;;;;;;;;;4951856;28;20027;-73
2023/09/24 19:21:55;;;;;;;2.92;2.58;;;;;;;;;;4970452;28;20058;-74
2023/09/24 19:24:20;;;;;;;3.10;2.60;;;;;;;;;;4976649;28;20042;-73
2023/09/24 19:26:52;;;;;;;2.70;2.40;;;;;;;;;;4976215;28;20054;-72
2023/09/24 19:29:21;;;;;;;4.45;2.70;;;;;;;;;;4975609;28;20027;-72
2023/09/24 19:31:47;;;;;;;5.10;2.38;;;;;;;;;;4975512;28;20030;-73
2023/09/24 19:34:13;;;;;;;4.28;2.60;;;;;;;;;;4975162;28;20038;-72
2023/09/24 19:36:40;;;;;;;5.13;2.85;;;;;;;;;;4975340;28;20027;-72
2023/09/24 19:39:05;;;;;;;3.00;2.50;;;;;;;;;;4967642;28;20062;-74
2023/09/24 19:41:31;;;;;;;3.15;2.80;;;;;;;;;;4972106;28;20054;-73
2023/09/24 19:43:58;;;;;;;3.35;2.50;;;;;;;;;;4973356;28;20099;-75
2023/09/24 19:46:24;;;;;;;4.63;2.42;;;;;;;;;;4974043;28;20027;-73
2023/09/24 19:48:50;;;;;;;2.75;2.40;;;;;;;;;;4966718;28;20027;-72
2023/09/24 19:51:16;;;;;;;2.67;2.33;;;;;;;;;;4955229;28;20027;-72
2023/09/24 19:53:42;;;;;;;4.20;2.30;;;;;;;;;;4938314;29;20031;-73
2023/09/24 19:56:07;;;;;;;3.28;2.38;;;;;;;;;;4954365;29;20484;-74
2023/09/24 19:58:35;;;;;;;3.17;2.40;;;;;;;;;;4953882;28;20111;-73
2023/09/24 20:01:01;;;;;;;6.35;2.58;;;;;;;;;;4954093;29;20384;-74
2023/09/24 20:03:26;;;;;;;4.88;2.30;;;;;;;;;;4953808;28;20031;-75
2023/09/24 20:05:52;;;;;;;4.95;2.17;;;;;;;;;;4954161;28;20102;-74
2023/09/24 20:08:24;;;;;;;2.78;2.28;;;;;;;;;;4953960;29;20570;-73
2023/09/24 20:10:51;;;;;;;4.03;2.22;;;;;;;;;;4953472;29;20387;-73
2023/09/24 20:13:16;;;;;;;2.13;1.92;;;;;;;;;;4954776;28;20502;-75
2023/09/24 20:15:42;;;;;;;2.03;1.90;;;;;;;;;;4928024;29;20107;-75
2023/09/24 20:18:08;;;;;;;1.90;1.80;;;;;;;;;;4959038;28;20179;-76
2023/09/24 20:20:33;;;;;;;7.72;2.20;;;;;;;;;;4965845;28;20098;-74
2023/09/24 20:22:59;;;;;;;1.90;1.80;;;;;;;;;;4973825;28;20027;-74
2023/09/24 20:25:41;;;;;;;11.77;2.08;;;;;;;;;;4974350;28;20448;-75
2023/09/24 20:28:06;;;;;;;2.10;2.00;;;;;;;;;;4973828;28;20364;-73
2023/09/24 20:30:32;;;;;;;5.63;2.05;;;;;;;;;;4974350;28;20025;-74
2023/09/24 20:32:57;;;;;;;5.70;1.90;;;;;;;;;;4973873;28;20061;-74
2023/09/24 20:35:23;;;;;;;3.30;1.83;;;;;;;;;;4973889;28;20069;-72
2023/09/24 20:37:50;;;;;;;3.05;1.98;;;;;;;;;;4972781;28;20054;-73
2023/09/24 20:40:16;;;;;;;1.73;1.63;;;;;;;;;;4974068;28;20081;-75
2023/09/24 20:42:42;;;;;;;2.42;1.95;;;;;;;;;;4974157;28;20027;-73
2023/09/24 20:45:09;;;;;;;2.03;1.55;;;;;;;;;;4973925;28;20061;-73
2023/09/24 20:47:36;;;;;;;6.78;1.83;;;;;;;;;;4974232;28;20034;-73
2023/09/24 20:50:03;;;;;;;1.73;1.60;;;;;;;;;;4974363;28;20030;-72
2023/09/24 20:52:28;;;;;;;3.53;1.50;;;;;;;;;;4973799;28;20475;-72
2023/09/24 20:54:54;;;;;;;5.00;1.58;;;;;;;;;;4975495;28;20066;-77
2023/09/24 20:57:20;;;;;;;3.50;1.55;;;;;;;;;;4957443;28;20023;-72
2023/09/24 20:59:57;;;;;;;4.70;1.70;;;;;;;;;;4975833;28;20029;-75
2023/09/24 21:02:22;;;;;;;4.90;1.60;;;;;;;;;;4975227;28;20109;-75
2023/09/24 21:04:48;;;;;;;5.75;1.60;;;;;;;;;;4974561;28;20113;-74
2023/09/24 21:07:13;;;;;;;1.50;1.40;;;;;;;;;;4972992;28;20197;-74
2023/09/24 21:09:39;;;;;;;1.50;1.40;;;;;;;;;;4963745;28;20034;-75
2023/09/24 21:12:05;;;;;;;2.63;1.42;;;;;;;;;;4963724;28;20027;-73
2023/09/24 21:14:30;;;;;;;3.67;1.40;;;;;;;;;;4957075;28;20077;-73
2023/09/24 21:16:56;;;;;;;4.13;1.42;;;;;;;;;;4954788;29;20030;-73
2023/09/24 21:19:21;;;;;;;1.63;1.33;;;;;;;;;;4954737;28;20027;-73
2023/09/24 21:21:47;;;;;;;3.15;1.35;;;;;;;;;;4956837;28;20075;-74
2023/09/24 21:24:12;;;;;;;3.45;1.70;;;;;;;;;;4955574;28;20055;-74
2023/09/24 21:26:38;;;;;;;6.85;1.52;;;;;;;;;;4971303;28;20110;-74
2023/09/24 21:29:04;;;;;;;1.63;1.52;;;;;;;;;;4973405;28;20027;-74
2023/09/24 21:31:29;;;;;;;2.33;1.42;;;;;;;;;;4973440;28;20102;-73
2023/09/24 21:33:55;;;;;;;2.03;1.58;;;;;;;;;;4973748;28;20027;-74
2023/09/24 21:36:20;;;;;;;4.32;1.48;;;;;;;;;;4972398;28;20155;-73
2023/09/24 21:38:50;;;;;;;1.95;1.30;;;;;;;;;;4974090;28;20027;-73
2023/09/24 21:41:17;;;;;;;3.38;1.50;;;;;;;;;;4974695;28;20023;-73